M I D A S
Marine Information and Data Acquisition System
Tripno 829 of the Zeeleeuw from 2004-10-29 06:24:00 to 2004-10-29 15:40:00
Back to CruiseResearch ActivitiesStationsMapUnderway DataData graphs

EquipmentUnitsComment
TimeDGPSUTC
LatitudeDGPSDM.mWGS84
LongitudeDGPSDM.mWGS84
HeadingGyrodeg 
SOGDGPSknotsSpeed over ground
COGDGPSdegCourse over ground
DepthEcho soundermeters200 kHz
Missing or incorrect values are displayed as -999
Navigation data collected by the RV Zeeleeuw from 2004-10-29 06:24:00 to 2004-10-29 15:40:00
Time Latitude Longitude Heading SOG COG Depth
2004-10-29 06:25:04 51°13.596 2°56.108 111.2 0.2 280 6.9
2004-10-29 06:26:03 51°13.615 2°56.028 113.9 4.5 290 -999
2004-10-29 06:27:02 51°13.653 2°55.905 120.9 5.6 298 -999
2004-10-29 06:28:02 51°13.685 2°55.786 101.9 4.3 285 -999
2004-10-29 06:29:04 51°13.696 2°55.762 44.9 0.4 336 13.4
2004-10-29 06:30:04 51°13.699 2°55.743 351.1 3.3 343 -999
2004-10-29 06:31:04 51°13.781 2°55.669 337.5 7.3 333 9.3
2004-10-29 06:32:04 51°13.911 2°55.572 340.4 9.3 336 8.7
2004-10-29 06:33:03 51°14.06 2°55.471 341.3 10.2 336 9.6
2004-10-29 06:34:04 51°14.225 2°55.328 330.4 11.6 323 10.2
2004-10-29 06:35:04 51°14.358 2°55.101 316.9 11.9 313 9.2
2004-10-29 06:36:04 51°14.518 2°54.877 324.5 13.4 315 8.7
2004-10-29 06:37:04 51°14.686 2°54.637 328.9 13.5 321 8.4
2004-10-29 06:38:04 51°14.877 2°54.454 340.4 13.3 331 8
2004-10-29 06:39:10 51°15.083 2°54.272 346.8 12.6 338 5.5
2004-10-29 06:40:10 51°15.257 2°54.069 327.2 13.3 320 8
2004-10-29 06:41:14 51°15.464 2°53.881 337.6 13.7 326 8.8
2004-10-29 06:42:14 51°15.659 2°53.687 339.4 13.9 329 9.7
2004-10-29 06:43:12 51°15.851 2°53.5 338.9 13.9 329 10.3
2004-10-29 06:44:14 51°16.062 2°53.327 343.7 13.8 332 10.8
2004-10-29 06:45:15 51°16.27 2°53.163 344 13.7 333 11.1
2004-10-29 06:46:15 51°16.473 2°53.001 344.7 13.7 334 11.1
2004-10-29 06:47:15 51°16.676 2°52.841 344 13.5 335 10
2004-10-29 06:48:22 51°16.897 2°52.674 342.5 13.1 333 8.2
2004-10-29 06:49:26 51°17.108 2°52.512 344.7 13.2 334 8.4
2004-10-29 06:50:27 51°17.312 2°52.352 345.1 13.5 335 9.1
2004-10-29 06:51:34 51°17.538 2°52.182 345.7 13.4 336 9.3
2004-10-29 06:52:42 51°17.767 2°52.008 344.4 13.4 335 9.1
2004-10-29 06:53:43 51°17.973 2°51.852 344 13.5 334 9.3
2004-10-29 06:54:50 51°18.201 2°51.675 343.8 13.7 334 10.1
2004-10-29 06:55:54 51°18.42 2°51.504 344.2 13.7 334 11.7
2004-10-29 06:56:58 51°18.638 2°51.332 344.7 13.6 334 12.9
2004-10-29 06:58:06 51°18.867 2°51.149 344.4 13.6 334 13.7
2004-10-29 06:59:06 51°19.069 2°50.987 344.3 13.6 333 14
2004-10-29 07:00:22 51°19.326 2°50.781 344.2 13.6 333 13.2
2004-10-29 07:01:22 51°19.528 2°50.621 344.7 13.6 334 11.2
2004-10-29 07:02:28 51°19.753 2°50.444 344.1 13.8 334 11.8
2004-10-29 07:03:28 51°19.959 2°50.281 344.5 13.8 335 13.2
2004-10-29 07:04:32 51°20.179 2°50.109 344.1 13.8 334 16.1
2004-10-29 07:05:33 51°20.387 2°49.942 344.3 13.7 334 19.3
2004-10-29 07:06:38 51°20.608 2°49.766 344.7 13.7 334 21.8
2004-10-29 07:07:38 51°20.812 2°49.601 344.2 13.7 333 22.2
2004-10-29 07:08:46 51°21.04 2°49.414 344.4 13.6 332 21.8
2004-10-29 07:09:52 51°21.262 2°49.233 344.5 13.6 333 21.1
2004-10-29 07:11:02 51°21.499 2°49.041 344.9 13.7 334 20.6
2004-10-29 07:12:02 51°21.703 2°48.877 343.9 13.7 333 22.5
2004-10-29 07:13:08 51°21.927 2°48.698 344.2 13.8 333 22.5
2004-10-29 07:14:07 51°22.128 2°48.537 344.7 13.8 333 23
2004-10-29 07:15:12 51°22.349 2°48.361 344 13.7 332 18.2
2004-10-29 07:16:20 51°22.577 2°48.183 346.1 13.2 335 14.8
2004-10-29 07:17:20 51°22.783 2°48.055 348.7 13.3 338 17.3
2004-10-29 07:18:20 51°22.989 2°47.924 348.9 13.3 337 18.2
2004-10-29 07:19:18 51°23.189 2°47.794 348.6 13.4 337 19.4
2004-10-29 07:20:20 51°23.403 2°47.66 349.2 13.4 337 20.1
2004-10-29 07:21:27 51°23.634 2°47.514 350 13.4 339 22.3
2004-10-29 07:22:28 51°23.845 2°47.38 350.5 13.2 340 21.8
2004-10-29 07:23:33 51°24.069 2°47.237 350.3 13.3 339 25.6
2004-10-29 07:24:48 51°24.325 2°47.074 348.9 13.3 339 28.4
2004-10-29 07:25:48 51°24.53 2°46.942 350.7 13.2 339 29
2004-10-29 07:26:49 51°24.74 2°46.805 349 13.3 339 27.1
2004-10-29 07:27:46 51°24.935 2°46.674 350.4 13.4 338 24
2004-10-29 07:29:00 51°25.186 2°46.512 349.3 13.2 338 24.4
2004-10-29 07:30:03 51°25.403 2°46.409 354.9 13 344 25.2
2004-10-29 07:31:02 51°25.611 2°46.311 354.5 13.2 344 22.5
2004-10-29 07:32:07 51°25.836 2°46.201 354.1 13.2 342 24.1
2004-10-29 07:33:07 51°26.044 2°46.108 354.3 13.1 343 25.5
2004-10-29 07:34:09 51°26.259 2°46.007 354.3 13.2 343 26.3
2004-10-29 07:35:22 51°26.513 2°45.882 354 13.1 345 26.9
2004-10-29 07:36:23 51°26.726 2°45.776 353.5 13 343 28.6
2004-10-29 07:37:30 51°26.956 2°45.662 354.5 13.1 342 29.7
2004-10-29 07:38:42 51°27.207 2°45.538 353.2 13.4 341 28
2004-10-29 07:39:44 51°27.422 2°45.43 355.2 13.1 344 27.6
2004-10-29 07:40:44 51°27.63 2°45.331 355.9 12.9 344 27.7
2004-10-29 07:41:44 51°27.839 2°45.236 354.4 13.2 344 27.1
2004-10-29 07:42:43 51°28.045 2°45.135 355 13.1 344 26.5
2004-10-29 07:43:49 51°28.276 2°45.012 353.1 13.3 343 28.1
2004-10-29 07:44:52 51°28.498 2°44.903 354.6 13.1 344 28.2
2004-10-29 07:45:50 51°28.698 2°44.812 354.3 12.9 345 27.1
2004-10-29 07:46:52 51°28.911 2°44.711 356.1 13 342 24.6
2004-10-29 07:47:52 51°29.118 2°44.618 355.6 12.9 345 28.2
2004-10-29 07:49:02 51°29.31 2°44.544 8.9 8.2 359 29.1
2004-10-29 07:50:02 51°29.426 2°44.573 15.2 5.9 2 28
2004-10-29 07:51:08 51°29.483 2°44.614 47.5 2.3 39 30.6
2004-10-29 07:52:18 51°29.504 2°44.63 49.3 0.4 271 27.9
2004-10-29 07:53:18 51°29.504 2°44.624 63.6 0.2 307 27.9
2004-10-29 07:54:25 51°29.504 2°44.627 64.5 0.2 35 28
2004-10-29 07:55:24 51°29.507 2°44.632 61.9 0.3 65 27.1
2004-10-29 07:56:46 51°29.552 2°44.844 79.7 10.9 80 29
2004-10-29 07:57:58 51°29.619 2°45.194 73.3 11.5 73 27.2
2004-10-29 07:59:06 51°29.688 2°45.537 71.2 12.2 69 27.7
2004-10-29 08:00:13 51°29.756 2°45.885 75.4 12.2 73 26.5
2004-10-29 08:01:30 51°29.85 2°46.27 73.5 11.9 68 24.5
2004-10-29 08:02:27 51°29.919 2°46.553 67.8 12.1 67 23.6
2004-10-29 08:03:53 51°30.017 2°46.889 68.3 6.7 61 22.8
2004-10-29 08:04:52 51°30.046 2°47.016 79.8 3.8 83 25.2
2004-10-29 08:05:52 51°30.071 2°47.08 50.9 2.2 44 24.4
2004-10-29 08:06:58 51°30.07 2°47.075 74.7 0.9 236 24.7
2004-10-29 08:08:03 51°30.06 2°47.063 86 0.6 200 25.6
2004-10-29 08:09:03 51°30.052 2°47.072 81.7 2.8 87 25.8
2004-10-29 08:10:03 51°30.097 2°47.252 72.7 9.5 73 26.4
2004-10-29 08:11:03 51°30.17 2°47.482 72 10.3 71 26
2004-10-29 08:12:18 51°30.243 2°47.81 69.3 10.5 70 22.5
2004-10-29 08:13:16 51°30.289 2°48.047 70.6 8.5 73 25.4
2004-10-29 08:14:16 51°30.322 2°48.188 66.5 4.7 70 22.4
2004-10-29 08:15:18 51°30.341 2°48.282 69.7 2.6 77 25.6
2004-10-29 08:16:36 51°30.336 2°48.317 78.4 0.4 151 25.8
2004-10-29 08:17:39 51°30.33 2°48.32 68.4 0.3 168 25.9
2004-10-29 08:18:44 51°30.324 2°48.315 68.3 0.4 216 25.8
2004-10-29 08:19:45 51°30.316 2°48.303 73.1 0.7 220 24.9
2004-10-29 08:21:06 51°30.302 2°48.293 80.9 1.5 108 23.1
2004-10-29 08:22:06 51°30.355 2°48.462 65.5 10.9 69 22.2
2004-10-29 08:23:06 51°30.433 2°48.753 68.1 11.9 65 26.2
2004-10-29 08:24:06 51°30.492 2°49.036 74.1 9.9 76 24.6
2004-10-29 08:25:06 51°30.559 2°49.252 62.5 8.6 62 23.4
2004-10-29 08:26:11 51°30.593 2°49.388 55.4 4 53 23.6
2004-10-29 08:27:08 51°30.621 2°49.471 53.7 3.3 48 26.1
2004-10-29 08:28:22 51°30.64 2°49.509 49.9 0.3 246 26.7
2004-10-29 08:29:23 51°30.637 2°49.505 64.4 0.4 205 26.3
2004-10-29 08:30:24 51°30.63 2°49.502 69.8 0.3 181 24.7
2004-10-29 08:31:28 51°30.624 2°49.504 67.5 0.3 158 24.7
2004-10-29 08:32:33 51°30.62 2°49.512 69.9 0.5 133 24.4
2004-10-29 08:33:33 51°30.618 2°49.548 77.3 4.1 82 26.7
2004-10-29 08:34:33 51°30.65 2°49.775 77.9 10.5 80 23.2
2004-10-29 08:35:31 51°30.697 2°50.037 74.1 10.8 75 24.3
2004-10-29 08:36:36 51°30.763 2°50.327 68.7 10.5 67 26
2004-10-29 08:37:46 51°30.821 2°50.542 58 5.5 59 24.8
2004-10-29 08:38:46 51°30.865 2°50.657 59.4 4.7 60 24.7
2004-10-29 08:39:58 51°30.905 2°50.757 56.7 2.6 59 25.3
2004-10-29 08:41:07 51°30.905 2°50.77 70.3 0.4 189 25.3
2004-10-29 08:42:07 51°30.892 2°50.763 87.8 0.8 202 24.4
2004-10-29 08:43:04 51°30.879 2°50.757 91 1 177 23.4
2004-10-29 08:44:12 51°30.864 2°50.763 89.7 0.7 169 24.6
2004-10-29 08:45:12 51°30.851 2°50.763 95.7 0.9 184 24.8
2004-10-29 08:46:18 51°30.851 2°50.9 78.7 9.2 79 23.6
2004-10-29 08:47:18 51°30.924 2°51.183 65.6 12.4 65 23.9
2004-10-29 08:48:16 51°30.998 2°51.472 75.2 12.3 78 22
2004-10-29 08:49:38 51°31.077 2°51.844 58.3 6.9 52 23.4
2004-10-29 08:50:38 51°31.143 2°51.935 44.9 4.4 40 22.5
2004-10-29 08:51:46 51°31.186 2°51.989 49.4 1.1 51 23.2
2004-10-29 08:52:46 51°31.19 2°51.988 40.6 0.2 8 23.3
2004-10-29 08:53:46 51°31.192 2°51.986 51.7 0.3 278 23.3
2004-10-29 08:54:54 51°31.188 2°51.978 63.8 0.5 227 22.3
2004-10-29 08:56:02 51°31.179 2°51.969 77 0.7 205 21.5
2004-10-29 08:57:23 51°31.187 2°52.117 74.7 10 74 22.4
2004-10-29 08:58:22 51°31.243 2°52.425 73.5 12.7 73 20.6
2004-10-29 08:59:31 51°31.311 2°52.787 73.5 12.3 74 20.4
2004-10-29 09:00:32 51°31.373 2°53.059 62.4 7.6 60 20.8
2004-10-29 09:01:39 51°31.433 2°53.18 52.5 3.9 52 21.3
2004-10-29 09:02:59 51°31.459 2°53.238 51.8 0.2 57 22
2004-10-29 09:04:03 51°31.462 2°53.239 37 0.2 321 21.9
2004-10-29 09:05:04 51°31.466 2°53.231 34.9 0.3 295 22
2004-10-29 09:06:11 51°31.466 2°53.22 39.9 0.4 264 21.8
2004-10-29 09:07:12 51°31.465 2°53.21 52.3 0.4 244 21.5
2004-10-29 09:08:18 51°31.488 2°53.312 70.7 8.1 70 20.7
2004-10-29 09:09:24 51°31.55 2°53.618 72.6 12.2 75 19.6
2004-10-29 09:10:30 51°31.615 2°53.963 72.8 12.3 73 20.4
2004-10-29 09:11:30 51°31.672 2°54.238 65.3 8.2 66 21
2004-10-29 09:12:35 51°31.712 2°54.391 66.8 4.1 72 21
2004-10-29 09:13:36 51°31.736 2°54.443 38.2 1.6 34 21.1
2004-10-29 09:14:35 51°31.75 2°54.449 38.7 0.7 23 21.6
2004-10-29 09:15:36 51°31.753 2°54.452 50.4 0.2 204 21.6
2004-10-29 09:16:50 51°31.749 2°54.447 62.7 0.5 192 21.5
2004-10-29 09:17:58 51°31.738 2°54.437 72.1 0.8 214 21
2004-10-29 09:19:02 51°31.727 2°54.429 76.7 0.6 191 19.2
2004-10-29 09:20:07 51°31.715 2°54.433 76 0.7 162 18.2
2004-10-29 09:21:06 51°31.707 2°54.448 68.6 1.6 79 18
2004-10-29 09:22:07 51°31.681 2°54.609 116.3 9.7 125 20.8
2004-10-29 09:23:06 51°31.538 2°54.804 142.1 12.3 147 20.1
2004-10-29 09:24:04 51°31.373 2°54.977 154.6 12.5 157 19.1
2004-10-29 09:25:10 51°31.168 2°55.135 166.8 12.9 171 16.6
2004-10-29 09:26:16 51°30.994 2°55.224 161.4 7.8 170 16.6
2004-10-29 09:27:24 51°30.897 2°55.123 261 5.9 254 21.1
2004-10-29 09:28:28 51°30.93 2°55.017 355.7 3.3 337 20.1
2004-10-29 09:29:38 51°30.947 2°55.01 45.5 0.2 220 18.8
2004-10-29 09:30:38 51°30.941 2°55.008 63.8 0.4 197 19.5
2004-10-29 09:31:38 51°30.933 2°55.009 71.2 0.4 167 20.2
2004-10-29 09:32:38 51°30.923 2°55.009 83.9 0.7 185 20.8
2004-10-29 09:33:38 51°30.901 2°55.057 111.6 5 122 18.3
2004-10-29 09:34:46 51°30.765 2°55.13 181.8 10.3 187 33.4
2004-10-29 09:35:46 51°30.606 2°54.95 238.7 12.7 237 36.4
2004-10-29 09:37:14 51°30.559 2°54.465 275.7 12.9 269 33.5
2004-10-29 09:38:14 51°30.626 2°54.163 299.3 12.1 287 29.8
2004-10-29 09:39:14 51°30.661 2°53.939 304.2 6.8 291 26.7
2004-10-29 09:40:16 51°30.671 2°53.805 276.2 2.6 251 26.1
2004-10-29 09:41:16 51°30.663 2°53.784 263.9 0.6 238 -999
2004-10-29 09:42:25 51°30.656 2°53.762 282.3 0.8 237 26.1
2004-10-29 09:43:34 51°30.649 2°53.741 286.9 0.8 245 25.6
2004-10-29 09:44:40 51°30.641 2°53.72 287.1 0.9 238 25.8
2004-10-29 09:46:16 51°30.606 2°53.532 255.6 10.6 252 26.9
2004-10-29 09:47:18 51°30.531 2°53.19 257.5 13.4 252 27.1
2004-10-29 09:48:18 51°30.469 2°52.917 264 9.3 255 28.3
2004-10-29 09:49:20 51°30.429 2°52.715 263.5 6 252 28
2004-10-29 09:50:22 51°30.401 2°52.591 270.1 4 258 28.2
2004-10-29 09:51:26 51°30.39 2°52.56 278.7 0.6 157 -999
2004-10-29 09:52:42 51°30.378 2°52.561 294.6 0.6 189 29.2
2004-10-29 09:53:44 51°30.369 2°52.556 307.2 0.7 217 28.7
2004-10-29 09:55:02 51°30.364 2°52.527 311.3 1.2 270 29.4
2004-10-29 09:56:06 51°30.364 2°52.484 296.8 1.8 267 29.4
2004-10-29 09:57:08 51°30.363 2°52.424 281.6 3 266 29.7
2004-10-29 09:58:08 51°30.343 2°52.319 259.5 4.9 250 30
2004-10-29 09:59:12 51°30.309 2°52.174 255.3 5.8 247 28.1
2004-10-29 10:00:22 51°30.267 2°52.002 257.9 6.1 250 29.2
2004-10-29 10:01:20 51°30.237 2°51.858 258.2 6 251 28.3
2004-10-29 10:02:24 51°30.201 2°51.725 253.7 4.3 244 29.6
2004-10-29 10:03:27 51°30.176 2°51.638 254.3 2.9 245 30.4
2004-10-29 10:04:27 51°30.161 2°51.578 257.2 2.2 246 30.1
2004-10-29 10:05:39 51°30.144 2°51.528 247 1.4 238 27.6
2004-10-29 10:06:39 51°30.132 2°51.497 246 1.3 244 28.2
2004-10-29 10:07:47 51°30.122 2°51.464 252.4 1.1 247 27.9
2004-10-29 10:08:47 51°30.116 2°51.441 256.5 0.9 246 28.4
2004-10-29 10:09:47 51°30.111 2°51.422 263.3 0.7 248 29
2004-10-29 10:10:48 51°30.107 2°51.407 273.9 0.6 253 28.9
2004-10-29 10:11:48 51°30.104 2°51.394 279.5 0.4 238 28.7
2004-10-29 10:12:47 51°30.1 2°51.384 280 0.4 242 29.1
2004-10-29 10:13:47 51°30.097 2°51.375 279.5 0.4 240 29.3
2004-10-29 10:14:48 51°30.094 2°51.359 287.4 0.9 267 29.1
2004-10-29 10:15:48 51°30.09 2°51.333 292.7 0.6 228 29.5
2004-10-29 10:16:46 51°30.084 2°51.323 296.4 1.4 272 29.4
2004-10-29 10:17:50 51°30.111 2°51.276 356.8 2.1 342 27.9
2004-10-29 10:18:55 51°30.115 2°51.262 37.7 0.8 229 28.3
2004-10-29 10:19:54 51°30.116 2°51.268 74 1.1 93 28.2
2004-10-29 10:21:02 51°30.109 2°51.3 96.3 0.8 117 28.1
2004-10-29 10:22:04 51°30.103 2°51.318 88.6 0.7 116 28.9
2004-10-29 10:23:04 51°30.099 2°51.33 88.6 0.5 138 28.9
2004-10-29 10:24:06 51°30.094 2°51.33 90.6 0.4 239 29.4
2004-10-29 10:25:06 51°30.092 2°51.324 88.7 0.3 248 29.3
2004-10-29 10:26:06 51°30.089 2°51.317 85.7 0.3 248 29.5
2004-10-29 10:27:06 51°30.086 2°51.312 88 0.2 262 29.4
2004-10-29 10:28:12 51°30.072 2°51.342 124.2 3.5 135 30.6
2004-10-29 10:29:18 51°29.994 2°51.335 220.7 5.2 217 29.5
2004-10-29 10:30:22 51°29.948 2°51.09 257 12.7 253 30
2004-10-29 10:31:24 51°29.904 2°50.721 262.9 13.9 259 29.2
2004-10-29 10:32:31 51°29.877 2°50.404 264 8 255 28.8
2004-10-29 10:33:36 51°29.853 2°50.217 262.1 5.8 256 29.9
2004-10-29 10:34:43 51°29.831 2°50.106 257.8 2.2 248 27.8
2004-10-29 10:35:50 51°29.822 2°50.08 257.6 0.4 246 28.2
2004-10-29 10:36:54 51°29.819 2°50.07 270.4 0.3 259 28.7
2004-10-29 10:38:07 51°29.816 2°50.071 285.5 0.3 131 28.2
2004-10-29 10:39:12 51°29.812 2°50.078 295.6 0.3 143 28.2
2004-10-29 10:40:14 51°29.814 2°50.031 276.6 5.6 267 29.4
2004-10-29 10:41:16 51°29.77 2°49.744 257.2 12.8 253 27.5
2004-10-29 10:42:28 51°29.667 2°49.361 251.8 13 248 27.2
2004-10-29 10:43:39 51°29.604 2°49.049 264.9 7.3 259 26
2004-10-29 10:44:39 51°29.572 2°48.921 258.7 3.9 253 24.8
2004-10-29 10:45:48 51°29.562 2°48.863 274.2 0.5 272 27.2
2004-10-29 10:46:47 51°29.56 2°48.854 272.9   216 27.3
2004-10-29 10:47:47 51°29.561 2°48.855 281.6 0.2 27 27.1
2004-10-29 10:48:54 51°29.563 2°48.857 287.4 0.1 61 27.1
2004-10-29 10:49:53 51°29.565 2°48.858 286.8 0.1 359 27.2
2004-10-29 10:51:00 51°29.568 2°48.819 268.7 4.3 261 27.3
2004-10-29 10:52:00 51°29.517 2°48.608 255.4 11.6 252 24.8
2004-10-29 10:53:06 51°29.439 2°48.273 246 12.4 241 26.9
2004-10-29 10:54:12 51°29.35 2°47.954 258.2 10.1 256 26.3
2004-10-29 10:55:12 51°29.308 2°47.769 246 5.4 244 27
2004-10-29 10:56:10 51°29.29 2°47.674 262.9 2.4 260 26.8
2004-10-29 10:57:12 51°29.289 2°47.648 278.1 0.6 276 24.2
2004-10-29 10:58:12 51°29.291 2°47.636 268.3 0.4 283 22.5
2004-10-29 10:59:12 51°29.292 2°47.627 258.1 0.3 304 22.7
2004-10-29 11:00:11 51°29.295 2°47.627 252.6 0.3 35 22.6
2004-10-29 11:01:15 51°29.302 2°47.633 264.1 0.3 37 25.8
2004-10-29 11:02:16 51°29.264 2°47.509 240.9 9.3 241 28.4
2004-10-29 11:03:16 51°29.211 2°47.235 252.2 11.4 247 28.4
2004-10-29 11:04:16 51°29.132 2°46.955 251.7 11.6 248 26.2
2004-10-29 11:05:24 51°29.054 2°46.655 247.9 8.5 244 28
2004-10-29 11:06:42 51°29.007 2°46.481 248.6 3.9 246 27.2
2004-10-29 11:07:44 51°28.99 2°46.413 251.3 0.9 255 25.3
2004-10-29 11:08:58 51°28.992 2°46.401 249.6 0.3 301 25.5
2004-10-29 11:10:10 51°28.998 2°46.403 239.1 0.6 32 25.2
2004-10-29 11:11:22 51°29.008 2°46.414 245.5 0.7 33 24.3
2004-10-29 11:12:34 51°29.015 2°46.411 252 2.3 250 23.9
2004-10-29 11:13:34 51°28.942 2°46.347 194.9 7.2 182 27.6
2004-10-29 11:14:34 51°28.838 2°46.468 124.7 8.9 116 29.4
2004-10-29 11:15:40 51°28.797 2°46.737 112.5 9.8 106 29
2004-10-29 11:16:39 51°28.75 2°46.988 114 10 111 30.2
2004-10-29 11:17:44 51°28.67 2°47.247 123.5 10 117 29.4
2004-10-29 11:19:02 51°28.595 2°47.574 118.8 10.1 112 31.8
2004-10-29 11:20:24 51°28.525 2°47.91 108.8 9 102 33
2004-10-29 11:21:32 51°28.482 2°48.081 122.6 5 113 33.9
2004-10-29 11:22:33 51°28.466 2°48.178 118.7 2.5 95 33.9
2004-10-29 11:23:42 51°28.474 2°48.22 113.8 1.1 45 34.1
2004-10-29 11:24:53 51°28.492 2°48.232 82.6 0.9 30 33.6
2004-10-29 11:25:52 51°28.501 2°48.233 61 0.5 9 33.7
2004-10-29 11:27:02 51°28.511 2°48.243 43 0.8 30 33.5
2004-10-29 11:28:04 51°28.523 2°48.259 39 1.1 41 33.7
2004-10-29 11:29:14 51°28.562 2°48.317 48.9 4.9 45 35
2004-10-29 11:30:12 51°28.667 2°48.531 63.2 12.1 60 32
2004-10-29 11:31:14 51°28.765 2°48.835 74.4 12.6 71 31.8
2004-10-29 11:32:14 51°28.819 2°49.149 80 10.6 75 30.8
2004-10-29 11:33:18 51°28.822 2°49.352 119.7 4.9 108 31.2
2004-10-29 11:34:18 51°28.785 2°49.43 172.5 2.8 145 31.1
2004-10-29 11:35:18 51°28.756 2°49.448 201.3 1.6 174 31.5
2004-10-29 11:36:28 51°28.744 2°49.451 215.4 0.4 146 31.5
2004-10-29 11:37:34 51°28.742 2°49.459 221.1 0.3 103 31.6
2004-10-29 11:38:37 51°28.74 2°49.462 231.8 0.2 176 31.8
2004-10-29 11:39:36 51°28.74 2°49.459 244.7 0.3 279 31.8
2004-10-29 11:40:36 51°28.743 2°49.451 256 0.5 301 31.7
2004-10-29 11:41:35 51°28.753 2°49.407 285.2 3.5 290 31.6
2004-10-29 11:42:58 51°28.908 2°49.394 30.7 9.6 28 30.1
2004-10-29 11:44:08 51°28.991 2°49.73 91 12.4 87 32.2
2004-10-29 11:45:09 51°29.014 2°50.06 100.2 10.3 96 30.4
2004-10-29 11:46:06 51°28.988 2°50.244 105.2 6 94 29.3
2004-10-29 11:47:10 51°29 2°50.382 92.9 4.3 78 29.8
2004-10-29 11:48:23 51°29.017 2°50.447 97.3 1.2 26 -999
2004-10-29 11:49:28 51°29.035 2°50.465 79.1 1.2 38 30.4
2004-10-29 11:50:26 51°29.051 2°50.488 62.7 1.5 42 30.5
2004-10-29 11:51:34 51°29.071 2°50.519 49.7 1.6 43 31
2004-10-29 11:52:34 51°29.095 2°50.559 56.7 3 53 30.9
2004-10-29 11:53:54 51°29.103 2°50.699 133.3 4.8 116 30.1
2004-10-29 11:54:55 51°29.052 2°50.739 212 2.6 188 30.1
2004-10-29 11:56:02 51°29.036 2°50.714 245.5 0.9 253 30.4
2004-10-29 11:57:02 51°29.026 2°50.685 246.9 1.4 252 31.1
2004-10-29 11:58:02 51°29.017 2°50.661 231.6 0.9 217 31.4
2004-10-29 11:59:02 51°29.01 2°50.655 227.8 0.1 199 31.6
2004-10-29 12:00:02 51°29.012 2°50.663 225.3 0.5 63 31.5
2004-10-29 12:01:26 51°29.018 2°50.679 226.4 0.4 61 31.3
2004-10-29 12:02:47 51°29.027 2°50.7 226.9 0.9 48 31.1
2004-10-29 12:03:54 51°29.02 2°50.603 276.5 5.9 286 31.2
2004-10-29 12:04:53 51°29.125 2°50.559 13.4 8.5 26 31.3
2004-10-29 12:05:53 51°29.186 2°50.78 95 11.7 88 31.6
2004-10-29 12:06:59 51°29.228 2°51.189 89.2 14.6 85 30.4
2004-10-29 12:08:02 51°29.263 2°51.594 87.4 14.5 82 32
2004-10-29 12:09:06 51°29.299 2°51.937 77.6 8.6 72 34
2004-10-29 12:10:04 51°29.35 2°52.028 17.2 3 35 33.6
2004-10-29 12:11:06 51°29.406 2°52.037 312.9 2.6 349 33.3
2004-10-29 12:12:17 51°29.434 2°52.051 263.9 1.2 15 33.3
2004-10-29 12:13:22 51°29.404 2°52.007 223.1 4.3 215 33.6
2004-10-29 12:14:22 51°29.359 2°51.951 230.5 2.6 226 33.7
2004-10-29 12:15:27 51°29.321 2°51.915 222.6 2.5 212 33.7
2004-10-29 12:16:26 51°29.3 2°51.894 229.6 1.1 219 34.2
2004-10-29 12:17:34 51°29.294 2°51.894 221.2 0.2 152 34.1
2004-10-29 12:18:52 51°29.298 2°51.897 240.9 0.4 11 33.7
2004-10-29 12:19:55 51°29.309 2°51.907 238.7 0.9 32 33.9
2004-10-29 12:20:54 51°29.322 2°51.923 232 1.1 41 34.1
2004-10-29 12:22:26 51°29.349 2°51.958 227.4 1.5 40 33.9
2004-10-29 12:23:26 51°29.331 2°51.978 177.8 3.3 145 34
2004-10-29 12:24:27 51°29.298 2°52.153 100.9 10.8 90 32.7
2004-10-29 12:25:32 51°29.401 2°52.495 63 12.7 61 33.2
2004-10-29 12:26:48 51°29.482 2°52.794 64.5 8.2 60 33.8
2004-10-29 12:27:49 51°29.523 2°52.959 86.7 5.6 73 32.9
2004-10-29 12:28:52 51°29.553 2°53.077 82 3.3 61 33.9
2004-10-29 12:29:53 51°29.574 2°53.096 70.2 1 342 34.2
2004-10-29 12:31:00 51°29.589 2°53.105 49.4 1 30 34.4
2004-10-29 12:32:02 51°29.605 2°53.127 39.1 1.4 41 34.7
2004-10-29 12:33:12 51°29.628 2°53.16 31.4 1.8 40 35.2
2004-10-29 12:34:14 51°29.652 2°53.192 31.9 1.9 38 35.4
2004-10-29 12:35:10 51°29.677 2°53.229 44.8 3.8 47 35.4
2004-10-29 12:36:14 51°29.779 2°53.397 40.7 11.8 40 35.7
2004-10-29 12:37:20 51°29.955 2°53.644 61.2 13 52 35.4
2004-10-29 12:38:35 51°29.992 2°54.047 96 11.5 86 34.3
2004-10-29 12:39:36 51°29.954 2°54.278 138 7.4 121 35.5
2004-10-29 12:40:39 51°29.902 2°54.347 196.4 2.2 167 35.6
2004-10-29 12:41:39 51°29.881 2°54.336 225.5 1.1 207 35.5
2004-10-29 12:42:39 51°29.865 2°54.337 209.4 0.8 161 35.3
2004-10-29 12:43:42 51°29.858 2°54.349 214.1 0.4 120 35.2
2004-10-29 12:44:43 51°29.857 2°54.36 220.1 0.3 77 35.4
2004-10-29 12:45:42 51°29.86 2°54.368 226.4 0.3 45 35.3
2004-10-29 12:46:46 51°29.866 2°54.373 229.9 0.3 26 35.3
2004-10-29 12:47:49 51°29.871 2°54.379 226.2 0.4 33 35.4
2004-10-29 12:48:46 51°29.876 2°54.386 222.5 0.5 49 35.5
2004-10-29 12:49:54 51°29.881 2°54.372 258.7 2.1 286 35.2
2004-10-29 12:50:54 51°29.939 2°54.333 344 5.5 4 35.5
2004-10-29 12:51:54 51°30.074 2°54.467 44.6 12.1 42 36.3
2004-10-29 12:53:15 51°30.204 2°54.885 77.8 13.3 71 37.7
2004-10-29 12:54:20 51°30.268 2°55.257 92.1 13.1 80 37.7
2004-10-29 12:55:18 51°30.24 2°55.5 142.1 6.5 124 35.3
2004-10-29 12:56:31 51°30.141 2°55.56 200.7 4.1 184 34.3
2004-10-29 12:57:30 51°30.118 2°55.548 233 0.2 154 34.3
2004-10-29 12:58:38 51°30.126 2°55.551 237.8 0.7 19 34.3
2004-10-29 12:59:38 51°30.139 2°55.563 232.9 1 41 34.2
2004-10-29 13:00:44 51°30.157 2°55.585 230.8 1.4 36 34.1
2004-10-29 13:01:44 51°30.175 2°55.609 226.4 1.6 38 34.3
2004-10-29 13:02:54 51°30.2 2°55.641 225.8 1.7 37 34.7
2004-10-29 13:04:02 51°30.218 2°55.609 285.5 4.3 313 34.6
2004-10-29 13:05:11 51°30.351 2°55.635 28.5 11.3 33 35.6
2004-10-29 13:06:12 51°30.486 2°55.921 66.1 14.8 61 35.1
2004-10-29 13:07:18 51°30.574 2°56.328 92.1 14.5 85 34.1
2004-10-29 13:08:24 51°30.549 2°56.694 131.8 9.7 122 33.4
2004-10-29 13:09:32 51°30.435 2°56.756 202.7 5.2 187 33.2
2004-10-29 13:10:38 51°30.387 2°56.755 212 0.7 145 33.3
2004-10-29 13:11:40 51°30.395 2°56.769 240 0.9 32 33.4
2004-10-29 13:12:38 51°30.411 2°56.783 239.9 1.2 30 33.5
2004-10-29 13:13:40 51°30.429 2°56.803 237.5 1.4 34 33.4
2004-10-29 13:14:40 51°30.449 2°56.828 235.1 1.6 37 33.4
2004-10-29 13:15:55 51°30.476 2°56.864 234.4 1.8 36 33.7
2004-10-29 13:16:54 51°30.498 2°56.892 232.3 1.7 40 33.7
2004-10-29 13:17:59 51°30.525 2°56.926 231 1.9 38 33.5
2004-10-29 13:19:00 51°30.55 2°56.959 230.5 1.9 37 33.3
2004-10-29 13:20:06 51°30.577 2°56.993 230.8 1.5 34 33.5
2004-10-29 13:21:12 51°30.561 2°56.981 221.4 3.4 211 33.5
2004-10-29 13:22:18 51°30.483 2°56.884 216.9 6.2 209 33.6
2004-10-29 13:23:22 51°30.423 2°56.786 241.5 3.2 239 33.4
2004-10-29 13:24:30 51°30.393 2°56.767 199.8 1.3 154 33.3
2004-10-29 13:25:27 51°30.386 2°56.787 200.8 0.9 97 33.4
2004-10-29 13:26:30 51°30.39 2°56.811 203 1 63 33.2
2004-10-29 13:27:34 51°30.401 2°56.837 204.6 1 55 32.7
2004-10-29 13:28:42 51°30.362 2°56.781 245.3 4.8 253 33.4
2004-10-29 13:29:42 51°30.337 2°56.638 242.9 5.8 244 33.6
2004-10-29 13:30:46 51°30.243 2°56.477 227.3 10.6 224 31.9
2004-10-29 13:31:54 51°30.092 2°56.235 228.6 11.5 226 33.3
2004-10-29 13:33:11 51°29.922 2°55.953 229.1 11.4 226 32.2
2004-10-29 13:34:13 51°29.812 2°55.691 241.1 11.6 241 32.6
2004-10-29 13:35:26 51°29.689 2°55.37 237.3 11.6 236 31.5
2004-10-29 13:36:26 51°29.582 2°55.113 237.8 11.5 237 30.7
2004-10-29 13:37:34 51°29.46 2°54.824 237.3 11.6 236 31.2
2004-10-29 13:38:42 51°29.339 2°54.529 237 11.8 237 31.8
2004-10-29 13:39:46 51°29.224 2°54.25 237.5 11.8 237 30.4
2004-10-29 13:40:58 51°29.094 2°53.94 237.5 11.6 236 29.8
2004-10-29 13:41:58 51°28.988 2°53.679 236.9 11.7 236 29.7
2004-10-29 13:42:58 51°28.881 2°53.417 237.6 11.8 237 29.9
2004-10-29 13:44:00 51°28.772 2°53.145 237.6 11.7 238 29.2
2004-10-29 13:45:00 51°28.665 2°52.886 237.3 11.6 237 27.9
2004-10-29 13:46:20 51°28.524 2°52.536 237.1 11.8 237 28.7
2004-10-29 13:47:18 51°28.422 2°52.281 237.3 11.7 238 28.1
2004-10-29 13:48:27 51°28.302 2°51.981 236.9 11.7 237 29.5
2004-10-29 13:49:27 51°28.191 2°51.726 235.3 11.7 235 28.6
2004-10-29 13:50:34 51°28.067 2°51.44 235.8 11.7 235 28
2004-10-29 13:51:34 51°27.955 2°51.183 236.2 11.8 235 27.5
2004-10-29 13:52:39 51°27.832 2°50.902 235.9 12.1 234 26.9
2004-10-29 13:53:38 51°27.716 2°50.639 235.2 12.3 234 27.4
2004-10-29 13:54:39 51°27.596 2°50.365 235.6 12.3 235 26.9
2004-10-29 13:55:48 51°27.459 2°50.059 235.3 12.2 235 27.7
2004-10-29 13:57:16 51°27.288 2°49.665 235.3 12.3 235 26.3
2004-10-29 13:58:34 51°27.131 2°49.322 234.2 12.3 234 26.4
2004-10-29 13:59:34 51°27.009 2°49.058 234.2 12.3 234 25.8
2004-10-29 14:00:42 51°26.872 2°48.758 234.2 12.3 234 26
2004-10-29 14:01:50 51°26.736 2°48.459 234.2 12.2 233 25.4
2004-10-29 14:03:00 51°26.595 2°48.151 234.3 12.3 234 25.7
2004-10-29 14:04:12 51°26.45 2°47.835 233.8 12.3 234 25.9
2004-10-29 14:05:12 51°26.331 2°47.57 234.4 12.2 234 26.3
2004-10-29 14:06:12 51°26.211 2°47.304 235 12.5 234 24.7
2004-10-29 14:07:27 51°26.062 2°46.968 234.6 12.4 236 26.9
2004-10-29 14:08:32 51°25.934 2°46.676 235.5 12.3 234 26.1
2004-10-29 14:09:34 51°25.812 2°46.396 235.8 12.4 235 26.4
2004-10-29 14:10:34 51°25.692 2°46.13 235.1 12.4 235 25.9
2004-10-29 14:11:47 51°25.547 2°45.801 234.5 12.4 234 27.7
2004-10-29 14:12:47 51°25.427 2°45.533 235.6 12.3 234 26.6
2004-10-29 14:13:47 51°25.308 2°45.263 235.1 12.4 234 28.7
2004-10-29 14:14:46 51°25.19 2°45.001 235.1 12.3 234 27.7
2004-10-29 14:15:46 51°25.084 2°44.718 241.9 12.6 240 28.5
2004-10-29 14:16:50 51°24.97 2°44.415 240 12.4 239 28.6
2004-10-29 14:17:58 51°24.848 2°44.096 239.4 12.3 239 25.8
2004-10-29 14:19:10 51°24.72 2°43.767 238.9 12 239 25
2004-10-29 14:20:20 51°24.595 2°43.445 240 12.2 237 27
2004-10-29 14:21:28 51°24.48 2°43.203 232.2 7.3 232 23.5
2004-10-29 14:22:34 51°24.426 2°43.079 220 4.3 218 26.9
2004-10-29 14:23:38 51°24.384 2°42.997 227.5 2.9 229 19.5
2004-10-29 14:24:38 51°24.379 2°42.964 245.9 0.7 323 24.1
2004-10-29 14:25:44 51°24.39 2°42.963 230 0.9 10 23.3
2004-10-29 14:26:44 51°24.407 2°42.978 227.9 1.3 28 20.2
2004-10-29 14:27:49 51°24.424 2°42.998 208.8 1 40 20.6
2004-10-29 14:28:56 51°24.434 2°43.018 189.2 0.9 61 24.1
2004-10-29 14:30:07 51°24.424 2°43.06 160.5 4.9 138 26.5
2004-10-29 14:31:08 51°24.316 2°43.234 146.4 12 137 27.2
2004-10-29 14:32:08 51°24.156 2°43.473 147.3 13.3 137 27.7
2004-10-29 14:33:16 51°23.97 2°43.744 147.3 13.4 137 26.2
2004-10-29 14:34:15 51°23.807 2°43.977 148.2 13.3 139 29.7
2004-10-29 14:35:24 51°23.615 2°44.243 150.1 13.4 139 28.7
2004-10-29 14:36:32 51°23.421 2°44.499 149.6 13.4 140 28.7
2004-10-29 14:37:37 51°23.236 2°44.744 148.7 13.4 141 28.1
2004-10-29 14:38:39 51°23.06 2°44.978 149.5 13.5 138 29.1
2004-10-29 14:39:38 51°22.892 2°45.196 149.3 13.2 140 28.6
2004-10-29 14:40:43 51°22.704 2°45.438 150 13.5 140 28.4
2004-10-29 14:41:48 51°22.514 2°45.683 149.2 13.4 140 22.7
2004-10-29 14:42:48 51°22.34 2°45.908 149.1 13.7 138 24.5
2004-10-29 14:44:06 51°22.114 2°46.201 149.8 13.4 142 23.2
2004-10-29 14:45:12 51°21.902 2°46.387 161.7 13.2 155 25.3
2004-10-29 14:46:14 51°21.701 2°46.561 159.2 13.3 151 27.4
2004-10-29 14:47:32 51°21.45 2°46.786 159 13.2 151 27.7
2004-10-29 14:48:39 51°21.233 2°46.978 156.9 13.5 149 24.7
2004-10-29 14:49:38 51°21.046 2°47.161 154.4 13.6 148 25.1
2004-10-29 14:50:39 51°20.855 2°47.36 153.7 13.5 146 21.2
2004-10-29 14:51:39 51°20.666 2°47.553 154.7 13.4 148 20.9
2004-10-29 14:53:03 51°20.403 2°47.824 154.9 13.5 145 22.7
2004-10-29 14:54:11 51°20.19 2°48.041 154.1 13.5 144 24.4
2004-10-29 14:55:10 51°20.006 2°48.231 154.5 13.5 147 24.6
2004-10-29 14:56:11 51°19.816 2°48.431 153.9 13.5 146 24.3
2004-10-29 14:57:22 51°19.593 2°48.659 154.1 13.5 150 21.1
2004-10-29 14:58:32 51°19.377 2°48.887 153.5 13.3 145 18.6
2004-10-29 14:59:42 51°19.159 2°49.106 155 13.3 149 14.4
2004-10-29 15:00:42 51°18.973 2°49.297 152.4 13.3 148 14.3
2004-10-29 15:01:50 51°18.765 2°49.52 150.5 13.2 144 12.9
2004-10-29 15:02:52 51°18.577 2°49.734 150.9 13.3 144 14.7
2004-10-29 15:03:51 51°18.399 2°49.938 148.8 13.3 144 15.8
2004-10-29 15:05:00 51°18.195 2°50.185 147.9 13.4 141 16.4
2004-10-29 15:06:15 51°17.974 2°50.455 148.6 13.3 142 15
2004-10-29 15:07:24 51°17.77 2°50.703 149.6 13.5 142 13.9
2004-10-29 15:08:24 51°17.594 2°50.913 150.2 13.3 145 12
2004-10-29 15:09:32 51°17.398 2°51.158 146.7 13.3 141 10.9
2004-10-29 15:10:34 51°17.217 2°51.389 147 13.5 141 12
2004-10-29 15:11:34 51°17.04 2°51.609 149.6 13.3 145 13
2004-10-29 15:13:00 51°16.771 2°51.88 155.1 13.3 150 12.9
2004-10-29 15:14:14 51°16.535 2°52.106 154.7 13.6 150 13.2
2004-10-29 15:15:39 51°16.263 2°52.37 154.1 13.7 148 14.6
2004-10-29 15:16:38 51°16.073 2°52.554 154.7 13.4 148 14.5
2004-10-29 15:17:44 51°15.865 2°52.768 152.1 13.6 146 14.2
2004-10-29 15:18:48 51°15.667 2°52.991 149 13.6 145 13.5
2004-10-29 15:19:48 51°15.491 2°53.219 145.4 13.7 142 13
2004-10-29 15:20:48 51°15.318 2°53.452 144.1 13.6 139 12.1
2004-10-29 15:21:46 51°15.126 2°53.604 167.4 13.2 162 11.6
2004-10-29 15:22:56 51°14.939 2°53.705 166.4 9 161 11.7
2004-10-29 15:23:56 51°14.8 2°53.76 171.1 8.5 168 12
2004-10-29 15:25:06 51°14.682 2°53.837 160.5 5.8 150 12.8
2004-10-29 15:26:05 51°14.609 2°53.922 150.3 5.4 141 13.4
2004-10-29 15:27:14 51°14.534 2°54.057 123.3 7.2 112 12.8
2004-10-29 15:28:15 51°14.494 2°54.272 113.4 8.3 107 13
2004-10-29 15:29:26 51°14.428 2°54.632 111.7 12.8 107 12.4
2004-10-29 15:30:36 51°14.367 2°54.998 109.7 11.8 106 11.6
2004-10-29 15:32:05 51°14.207 2°55.346 144.4 10.4 141 13.1
2004-10-29 15:33:11 51°14.071 2°55.454 158.1 7.7 155 12.4
2004-10-29 15:34:18 51°13.943 2°55.548 158.2 7.6 156 12
2004-10-29 15:35:36 51°13.788 2°55.67 153.3 8.3 149 12
2004-10-29 15:36:42 51°13.694 2°55.826 130.2 6.8 127 12
2004-10-29 15:37:52 51°13.636 2°55.989 119 5.5 115 10.4
2004-10-29 15:39:08 51°13.601 2°56.095 124.5 1.6 120 9.5